sensor_id;sensor_type;location;lat;lon;timestamp;P1;durP1;ratioP1;P2;durP2;ratioP2
80647;SDS011;70012;0.000;0.000;2023-07-20T00:01:51;8.18;;;3.08;;
80647;SDS011;70012;0.000;0.000;2023-07-20T00:04:18;5.90;;;3.50;;
80647;SDS011;70012;0.000;0.000;2023-07-20T00:06:44;6.13;;;3.30;;
80647;SDS011;70012;0.000;0.000;2023-07-20T00:09:11;10.32;;;3.08;;
80647;SDS011;70012;0.000;0.000;2023-07-20T00:11:38;4.32;;;2.67;;
80647;SDS011;70012;0.000;0.000;2023-07-20T00:14:05;6.13;;;3.28;;
80647;SDS011;70012;0.000;0.000;2023-07-20T00:16:32;6.47;;;3.03;;
80647;SDS011;70012;0.000;0.000;2023-07-20T00:18:59;8.50;;;3.33;;
80647;SDS011;70012;0.000;0.000;2023-07-20T00:21:26;7.43;;;3.33;;
80647;SDS011;70012;0.000;0.000;2023-07-20T00:23:52;6.03;;;3.08;;
80647;SDS011;70012;0.000;0.000;2023-07-20T00:26:19;4.40;;;2.78;;
80647;SDS011;70012;0.000;0.000;2023-07-20T00:28:48;5.30;;;2.80;;
80647;SDS011;70012;0.000;0.000;2023-07-20T00:31:18;7.20;;;3.13;;
80647;SDS011;70012;0.000;0.000;2023-07-20T00:33:45;8.70;;;3.03;;
80647;SDS011;70012;0.000;0.000;2023-07-20T00:36:12;8.20;;;3.30;;
80647;SDS011;70012;0.000;0.000;2023-07-20T00:38:38;5.82;;;2.53;;
80647;SDS011;70012;0.000;0.000;2023-07-20T00:41:05;3.83;;;2.55;;
80647;SDS011;70012;0.000;0.000;2023-07-20T00:43:32;5.55;;;3.03;;
80647;SDS011;70012;0.000;0.000;2023-07-20T00:45:58;5.30;;;2.83;;
80647;SDS011;70012;0.000;0.000;2023-07-20T00:48:25;4.80;;;2.63;;
80647;SDS011;70012;0.000;0.000;2023-07-20T00:50:52;6.90;;;2.80;;
80647;SDS011;70012;0.000;0.000;2023-07-20T00:53:19;5.82;;;2.70;;
80647;SDS011;70012;0.000;0.000;2023-07-20T00:55:46;5.90;;;2.60;;
80647;SDS011;70012;0.000;0.000;2023-07-20T00:58:13;4.00;;;2.60;;
80647;SDS011;70012;0.000;0.000;2023-07-20T01:00:39;6.20;;;2.95;;
80647;SDS011;70012;0.000;0.000;2023-07-20T01:03:06;5.43;;;2.70;;
80647;SDS011;70012;0.000;0.000;2023-07-20T01:05:36;5.45;;;2.47;;
80647;SDS011;70012;0.000;0.000;2023-07-20T01:08:12;4.18;;;2.60;;
80647;SDS011;70012;0.000;0.000;2023-07-20T01:10:46;6.35;;;2.90;;
80647;SDS011;70012;0.000;0.000;2023-07-20T01:13:20;5.65;;;2.55;;
80647;SDS011;70012;0.000;0.000;2023-07-20T01:15:57;4.72;;;2.63;;
80647;SDS011;70012;0.000;0.000;2023-07-20T01:18:27;3.67;;;2.45;;
80647;SDS011;70012;0.000;0.000;2023-07-20T01:20:55;4.18;;;2.38;;
80647;SDS011;70012;0.000;0.000;2023-07-20T01:23:42;4.75;;;2.63;;
80647;SDS011;70012;0.000;0.000;2023-07-20T01:29:36;4.35;;;2.70;;
80647;SDS011;70012;0.000;0.000;2023-07-20T01:32:21;5.88;;;2.53;;
80647;SDS011;70012;0.000;0.000;2023-07-20T01:34:51;7.22;;;3.13;;
80647;SDS011;70012;0.000;0.000;2023-07-20T01:37:19;3.85;;;2.60;;
80647;SDS011;70012;0.000;0.000;2023-07-20T01:39:48;5.47;;;2.60;;
80647;SDS011;70012;0.000;0.000;2023-07-20T01:42:15;7.03;;;3.30;;
80647;SDS011;70012;0.000;0.000;2023-07-20T01:44:42;5.25;;;3.05;;
80647;SDS011;70012;0.000;0.000;2023-07-20T01:47:09;5.68;;;2.85;;
80647;SDS011;70012;0.000;0.000;2023-07-20T01:49:35;3.25;;;2.42;;
80647;SDS011;70012;0.000;0.000;2023-07-20T01:52:02;4.68;;;2.63;;
80647;SDS011;70012;0.000;0.000;2023-07-20T01:54:29;4.38;;;2.45;;
80647;SDS011;70012;0.000;0.000;2023-07-20T01:56:55;6.88;;;2.60;;
80647;SDS011;70012;0.000;0.000;2023-07-20T01:59:22;6.53;;;2.88;;
80647;SDS011;70012;0.000;0.000;2023-07-20T02:01:48;4.65;;;2.75;;
80647;SDS011;70012;0.000;0.000;2023-07-20T02:04:15;5.22;;;3.03;;
80647;SDS011;70012;0.000;0.000;2023-07-20T02:06:41;6.03;;;3.10;;
80647;SDS011;70012;0.000;0.000;2023-07-20T02:09:09;6.28;;;3.22;;
80647;SDS011;70012;0.000;0.000;2023-07-20T02:11:35;4.40;;;2.95;;
80647;SDS011;70012;0.000;0.000;2023-07-20T02:14:02;5.35;;;2.80;;
80647;SDS011;70012;0.000;0.000;2023-07-20T02:16:29;6.43;;;3.40;;
80647;SDS011;70012;0.000;0.000;2023-07-20T02:18:55;7.18;;;3.13;;
80647;SDS011;70012;0.000;0.000;2023-07-20T02:21:23;5.97;;;2.80;;
80647;SDS011;70012;0.000;0.000;2023-07-20T02:23:49;6.97;;;3.15;;
80647;SDS011;70012;0.000;0.000;2023-07-20T02:26:16;9.95;;;2.88;;
80647;SDS011;70012;0.000;0.000;2023-07-20T02:28:43;7.22;;;3.25;;
80647;SDS011;70012;0.000;0.000;2023-07-20T02:31:10;6.97;;;2.80;;
80647;SDS011;70012;0.000;0.000;2023-07-20T02:33:36;4.75;;;2.78;;
80647;SDS011;70012;0.000;0.000;2023-07-20T02:36:03;4.43;;;2.63;;
80647;SDS011;70012;0.000;0.000;2023-07-20T02:38:29;3.90;;;2.85;;
80647;SDS011;70012;0.000;0.000;2023-07-20T02:40:56;7.03;;;3.17;;
80647;SDS011;70012;0.000;0.000;2023-07-20T02:43:23;6.40;;;2.70;;
80647;SDS011;70012;0.000;0.000;2023-07-20T02:45:50;5.38;;;3.10;;
80647;SDS011;70012;0.000;0.000;2023-07-20T02:48:17;3.92;;;3.13;;
80647;SDS011;70012;0.000;0.000;2023-07-20T02:50:43;5.43;;;2.90;;
80647;SDS011;70012;0.000;0.000;2023-07-20T02:53:10;6.15;;;3.55;;
80647;SDS011;70012;0.000;0.000;2023-07-20T02:55:37;6.60;;;2.90;;
80647;SDS011;70012;0.000;0.000;2023-07-20T03:02:56;4.57;;;2.80;;
80647;SDS011;70012;0.000;0.000;2023-07-20T03:05:23;5.60;;;2.75;;
80647;SDS011;70012;0.000;0.000;2023-07-20T03:07:55;6.88;;;2.95;;
80647;SDS011;70012;0.000;0.000;2023-07-20T03:10:22;6.20;;;2.80;;
80647;SDS011;70012;0.000;0.000;2023-07-20T03:12:48;8.48;;;2.90;;
80647;SDS011;70012;0.000;0.000;2023-07-20T03:15:15;7.35;;;2.75;;
80647;SDS011;70012;0.000;0.000;2023-07-20T03:17:42;3.90;;;2.65;;
80647;SDS011;70012;0.000;0.000;2023-07-20T03:20:09;7.28;;;2.67;;
80647;SDS011;70012;0.000;0.000;2023-07-20T03:22:36;4.53;;;2.65;;
80647;SDS011;70012;0.000;0.000;2023-07-20T03:25:03;5.55;;;3.28;;
80647;SDS011;70012;0.000;0.000;2023-07-20T03:27:30;4.65;;;2.75;;
80647;SDS011;70012;0.000;0.000;2023-07-20T03:29:57;6.63;;;2.90;;
80647;SDS011;70012;0.000;0.000;2023-07-20T03:37:16;5.75;;;2.60;;
80647;SDS011;70012;0.000;0.000;2023-07-20T03:39:43;5.47;;;2.50;;
80647;SDS011;70012;0.000;0.000;2023-07-20T03:47:03;3.85;;;2.72;;
80647;SDS011;70012;0.000;0.000;2023-07-20T03:49:31;4.97;;;2.97;;
80647;SDS011;70012;0.000;0.000;2023-07-20T03:51:57;5.28;;;2.60;;
80647;SDS011;70012;0.000;0.000;2023-07-20T03:56:51;5.10;;;2.45;;
80647;SDS011;70012;0.000;0.000;2023-07-20T03:59:17;5.25;;;3.00;;
80647;SDS011;70012;0.000;0.000;2023-07-20T04:01:44;4.63;;;2.85;;
80647;SDS011;70012;0.000;0.000;2023-07-20T04:04:11;6.53;;;3.03;;
80647;SDS011;70012;0.000;0.000;2023-07-20T04:06:37;5.93;;;3.22;;
80647;SDS011;70012;0.000;0.000;2023-07-20T04:09:04;6.32;;;2.85;;
80647;SDS011;70012;0.000;0.000;2023-07-20T04:11:33;6.50;;;2.88;;
80647;SDS011;70012;0.000;0.000;2023-07-20T04:14:00;5.07;;;3.03;;
80647;SDS011;70012;0.000;0.000;2023-07-20T04:16:26;7.07;;;2.95;;
80647;SDS011;70012;0.000;0.000;2023-07-20T04:18:56;7.07;;;2.72;;
80647;SDS011;70012;0.000;0.000;2023-07-20T04:21:25;9.98;;;3.50;;
80647;SDS011;70012;0.000;0.000;2023-07-20T04:23:53;7.57;;;3.20;;
80647;SDS011;70012;0.000;0.000;2023-07-20T04:26:20;4.68;;;2.90;;
80647;SDS011;70012;0.000;0.000;2023-07-20T04:28:47;5.68;;;3.00;;
80647;SDS011;70012;0.000;0.000;2023-07-20T04:31:15;6.03;;;2.80;;
80647;SDS011;70012;0.000;0.000;2023-07-20T04:33:42;5.40;;;2.55;;
80647;SDS011;70012;0.000;0.000;2023-07-20T04:36:09;7.47;;;2.80;;
80647;SDS011;70012;0.000;0.000;2023-07-20T04:38:35;3.75;;;2.53;;
80647;SDS011;70012;0.000;0.000;2023-07-20T04:41:02;7.18;;;3.33;;
80647;SDS011;70012;0.000;0.000;2023-07-20T04:43:29;7.25;;;3.13;;
80647;SDS011;70012;0.000;0.000;2023-07-20T04:45:56;7.40;;;3.20;;
80647;SDS011;70012;0.000;0.000;2023-07-20T04:48:23;5.50;;;2.90;;
80647;SDS011;70012;0.000;0.000;2023-07-20T04:50:50;7.35;;;3.35;;
80647;SDS011;70012;0.000;0.000;2023-07-20T04:53:16;6.78;;;2.72;;
80647;SDS011;70012;0.000;0.000;2023-07-20T04:55:50;6.32;;;3.03;;
80647;SDS011;70012;0.000;0.000;2023-07-20T04:58:19;10.40;;;3.28;;
80647;SDS011;70012;0.000;0.000;2023-07-20T05:00:47;7.35;;;3.50;;
80647;SDS011;70012;0.000;0.000;2023-07-20T05:03:15;7.43;;;3.20;;
80647;SDS011;70012;0.000;0.000;2023-07-20T05:05:42;7.95;;;3.40;;
80647;SDS011;70012;0.000;0.000;2023-07-20T05:08:08;7.65;;;3.25;;
80647;SDS011;70012;0.000;0.000;2023-07-20T05:10:35;7.32;;;3.40;;
80647;SDS011;70012;0.000;0.000;2023-07-20T05:13:02;6.75;;;3.42;;
80647;SDS011;70012;0.000;0.000;2023-07-20T05:15:29;9.38;;;3.67;;
80647;SDS011;70012;0.000;0.000;2023-07-20T05:17:55;11.70;;;3.65;;
80647;SDS011;70012;0.000;0.000;2023-07-20T05:20:22;7.68;;;3.67;;
80647;SDS011;70012;0.000;0.000;2023-07-20T05:22:49;7.63;;;4.03;;
80647;SDS011;70012;0.000;0.000;2023-07-20T05:25:16;7.57;;;3.70;;
80647;SDS011;70012;0.000;0.000;2023-07-20T05:27:44;11.50;;;4.78;;
80647;SDS011;70012;0.000;0.000;2023-07-20T05:30:12;12.13;;;5.78;;
80647;SDS011;70012;0.000;0.000;2023-07-20T05:32:39;8.68;;;4.13;;
80647;SDS011;70012;0.000;0.000;2023-07-20T05:35:06;6.82;;;4.03;;
80647;SDS011;70012;0.000;0.000;2023-07-20T05:37:33;11.18;;;4.95;;
80647;SDS011;70012;0.000;0.000;2023-07-20T05:40:00;6.32;;;4.35;;
80647;SDS011;70012;0.000;0.000;2023-07-20T05:42:27;11.60;;;5.65;;
80647;SDS011;70012;0.000;0.000;2023-07-20T05:44:53;11.88;;;5.80;;
80647;SDS011;70012;0.000;0.000;2023-07-20T05:47:21;14.85;;;5.40;;
80647;SDS011;70012;0.000;0.000;2023-07-20T05:49:48;12.90;;;6.03;;
80647;SDS011;70012;0.000;0.000;2023-07-20T05:52:15;10.73;;;5.40;;
80647;SDS011;70012;0.000;0.000;2023-07-20T05:54:41;8.77;;;5.20;;
80647;SDS011;70012;0.000;0.000;2023-07-20T05:57:08;15.05;;;6.03;;
80647;SDS011;70012;0.000;0.000;2023-07-20T05:59:34;11.00;;;4.82;;
80647;SDS011;70012;0.000;0.000;2023-07-20T06:02:02;10.02;;;5.40;;
80647;SDS011;70012;0.000;0.000;2023-07-20T06:04:28;11.38;;;5.22;;
80647;SDS011;70012;0.000;0.000;2023-07-20T06:06:55;8.63;;;4.45;;
80647;SDS011;70012;0.000;0.000;2023-07-20T06:09:21;8.43;;;4.30;;
80647;SDS011;70012;0.000;0.000;2023-07-20T06:11:48;8.90;;;4.55;;
80647;SDS011;70012;0.000;0.000;2023-07-20T06:14:15;8.50;;;4.53;;
80647;SDS011;70012;0.000;0.000;2023-07-20T06:16:41;10.52;;;5.65;;
80647;SDS011;70012;0.000;0.000;2023-07-20T06:19:08;10.02;;;4.80;;
80647;SDS011;70012;0.000;0.000;2023-07-20T06:21:37;11.93;;;4.78;;
80647;SDS011;70012;0.000;0.000;2023-07-20T06:24:04;10.70;;;4.70;;
80647;SDS011;70012;0.000;0.000;2023-07-20T06:26:31;9.15;;;4.18;;
80647;SDS011;70012;0.000;0.000;2023-07-20T06:29:07;7.38;;;3.83;;
80647;SDS011;70012;0.000;0.000;2023-07-20T06:31:35;11.27;;;4.45;;
80647;SDS011;70012;0.000;0.000;2023-07-20T06:34:02;6.70;;;4.22;;
80647;SDS011;70012;0.000;0.000;2023-07-20T06:36:30;8.57;;;5.05;;
80647;SDS011;70012;0.000;0.000;2023-07-20T06:38:56;10.38;;;4.43;;
80647;SDS011;70012;0.000;0.000;2023-07-20T06:41:26;10.13;;;4.30;;
80647;SDS011;70012;0.000;0.000;2023-07-20T06:43:55;9.48;;;4.43;;
80647;SDS011;70012;0.000;0.000;2023-07-20T06:46:27;8.77;;;4.47;;
80647;SDS011;70012;0.000;0.000;2023-07-20T06:48:54;7.47;;;4.82;;
80647;SDS011;70012;0.000;0.000;2023-07-20T06:51:24;9.93;;;4.57;;
80647;SDS011;70012;0.000;0.000;2023-07-20T06:53:51;8.13;;;5.13;;
80647;SDS011;70012;0.000;0.000;2023-07-20T06:56:18;7.70;;;4.30;;
80647;SDS011;70012;0.000;0.000;2023-07-20T06:58:48;8.43;;;4.55;;
80647;SDS011;70012;0.000;0.000;2023-07-20T07:01:15;8.18;;;4.50;;
80647;SDS011;70012;0.000;0.000;2023-07-20T07:03:43;10.02;;;5.15;;
80647;SDS011;70012;0.000;0.000;2023-07-20T07:06:10;9.13;;;5.47;;
80647;SDS011;70012;0.000;0.000;2023-07-20T07:08:37;7.93;;;5.07;;
80647;SDS011;70012;0.000;0.000;2023-07-20T07:11:03;10.13;;;5.13;;
80647;SDS011;70012;0.000;0.000;2023-07-20T07:13:31;8.10;;;5.00;;
80647;SDS011;70012;0.000;0.000;2023-07-20T07:15:58;7.07;;;5.25;;
80647;SDS011;70012;0.000;0.000;2023-07-20T07:18:25;8.65;;;5.25;;
80647;SDS011;70012;0.000;0.000;2023-07-20T07:20:53;7.82;;;4.78;;
80647;SDS011;70012;0.000;0.000;2023-07-20T07:23:20;8.95;;;5.00;;
80647;SDS011;70012;0.000;0.000;2023-07-20T07:25:47;11.85;;;4.60;;
80647;SDS011;70012;0.000;0.000;2023-07-20T07:28:14;7.50;;;4.07;;
80647;SDS011;70012;0.000;0.000;2023-07-20T07:30:41;6.13;;;4.47;;
80647;SDS011;70012;0.000;0.000;2023-07-20T07:33:08;8.82;;;5.25;;
80647;SDS011;70012;0.000;0.000;2023-07-20T07:35:36;8.07;;;4.97;;
80647;SDS011;70012;0.000;0.000;2023-07-20T07:38:03;9.50;;;4.55;;
80647;SDS011;70012;0.000;0.000;2023-07-20T07:40:50;7.88;;;4.38;;
80647;SDS011;70012;0.000;0.000;2023-07-20T07:43:16;7.93;;;4.55;;
80647;SDS011;70012;0.000;0.000;2023-07-20T07:45:43;8.93;;;4.72;;
80647;SDS011;70012;0.000;0.000;2023-07-20T07:48:10;6.10;;;3.97;;
80647;SDS011;70012;0.000;0.000;2023-07-20T07:50:38;12.40;;;4.43;;
80647;SDS011;70012;0.000;0.000;2023-07-20T07:53:07;5.25;;;3.97;;
80647;SDS011;70012;0.000;0.000;2023-07-20T07:55:35;8.30;;;4.60;;
80647;SDS011;70012;0.000;0.000;2023-07-20T07:58:01;6.55;;;3.90;;
80647;SDS011;70012;0.000;0.000;2023-07-20T08:00:28;7.20;;;4.65;;
80647;SDS011;70012;0.000;0.000;2023-07-20T08:02:55;8.60;;;3.95;;
80647;SDS011;70012;0.000;0.000;2023-07-20T08:05:21;6.13;;;3.67;;
80647;SDS011;70012;0.000;0.000;2023-07-20T08:07:48;5.88;;;3.97;;
80647;SDS011;70012;0.000;0.000;2023-07-20T08:10:15;4.82;;;3.53;;
80647;SDS011;70012;0.000;0.000;2023-07-20T08:12:41;6.75;;;3.70;;
80647;SDS011;70012;0.000;0.000;2023-07-20T08:15:10;6.38;;;3.65;;
80647;SDS011;70012;0.000;0.000;2023-07-20T08:17:37;5.57;;;3.42;;
80647;SDS011;70012;0.000;0.000;2023-07-20T08:20:04;6.38;;;3.10;;
80647;SDS011;70012;0.000;0.000;2023-07-20T08:22:32;5.13;;;2.97;;
80647;SDS011;70012;0.000;0.000;2023-07-20T08:24:59;5.70;;;2.83;;
80647;SDS011;70012;0.000;0.000;2023-07-20T08:27:26;5.40;;;2.80;;
80647;SDS011;70012;0.000;0.000;2023-07-20T08:32:20;5.10;;;2.85;;
80647;SDS011;70012;0.000;0.000;2023-07-20T08:34:47;4.95;;;2.83;;
80647;SDS011;70012;0.000;0.000;2023-07-20T08:37:14;6.88;;;3.15;;
80647;SDS011;70012;0.000;0.000;2023-07-20T08:39:40;5.05;;;2.83;;
80647;SDS011;70012;0.000;0.000;2023-07-20T08:42:07;5.40;;;2.78;;
80647;SDS011;70012;0.000;0.000;2023-07-20T08:44:34;4.13;;;2.90;;
80647;SDS011;70012;0.000;0.000;2023-07-20T08:47:02;4.10;;;2.60;;
80647;SDS011;70012;0.000;0.000;2023-07-20T08:49:33;5.07;;;2.40;;
80647;SDS011;70012;0.000;0.000;2023-07-20T08:52:00;3.45;;;2.42;;
80647;SDS011;70012;0.000;0.000;2023-07-20T08:54:29;3.50;;;2.38;;
80647;SDS011;70012;0.000;0.000;2023-07-20T08:57:04;5.18;;;2.50;;
80647;SDS011;70012;0.000;0.000;2023-07-20T08:59:31;4.45;;;2.60;;
80647;SDS011;70012;0.000;0.000;2023-07-20T09:01:59;3.63;;;2.38;;
80647;SDS011;70012;0.000;0.000;2023-07-20T09:04:26;4.65;;;2.50;;
80647;SDS011;70012;0.000;0.000;2023-07-20T09:06:53;3.35;;;2.22;;
80647;SDS011;70012;0.000;0.000;2023-07-20T09:09:20;3.80;;;2.40;;
80647;SDS011;70012;0.000;0.000;2023-07-20T09:11:49;3.75;;;2.35;;
80647;SDS011;70012;0.000;0.000;2023-07-20T09:14:16;4.97;;;2.35;;
80647;SDS011;70012;0.000;0.000;2023-07-20T09:16:50;8.80;;;2.90;;
80647;SDS011;70012;0.000;0.000;2023-07-20T09:19:18;4.60;;;2.47;;
80647;SDS011;70012;0.000;0.000;2023-07-20T09:21:48;2.90;;;2.20;;
80647;SDS011;70012;0.000;0.000;2023-07-20T09:24:17;4.28;;;2.60;;
80647;SDS011;70012;0.000;0.000;2023-07-20T09:26:45;3.25;;;2.20;;
80647;SDS011;70012;0.000;0.000;2023-07-20T09:29:20;4.15;;;2.50;;
80647;SDS011;70012;0.000;0.000;2023-07-20T09:34:30;3.15;;;2.20;;
80647;SDS011;70012;0.000;0.000;2023-07-20T09:37:02;5.18;;;2.42;;
80647;SDS011;70012;0.000;0.000;2023-07-20T09:39:31;2.75;;;2.10;;
80647;SDS011;70012;0.000;0.000;2023-07-20T09:42:01;3.38;;;2.47;;
80647;SDS011;70012;0.000;0.000;2023-07-20T09:44:31;4.05;;;2.10;;
80647;SDS011;70012;0.000;0.000;2023-07-20T09:47:02;4.72;;;2.33;;
80647;SDS011;70012;0.000;0.000;2023-07-20T09:49:30;2.83;;;2.00;;
80647;SDS011;70012;0.000;0.000;2023-07-20T09:52:16;4.03;;;2.25;;
80647;SDS011;70012;0.000;0.000;2023-07-20T09:54:48;3.55;;;2.03;;
80647;SDS011;70012;0.000;0.000;2023-07-20T09:57:14;3.72;;;2.30;;
80647;SDS011;70012;0.000;0.000;2023-07-20T09:59:41;3.15;;;2.30;;
80647;SDS011;70012;0.000;0.000;2023-07-20T10:02:12;3.00;;;1.95;;
80647;SDS011;70012;0.000;0.000;2023-07-20T10:04:47;4.25;;;2.20;;
80647;SDS011;70012;0.000;0.000;2023-07-20T10:07:17;3.85;;;2.20;;
80647;SDS011;70012;0.000;0.000;2023-07-20T10:09:47;4.50;;;2.40;;
80647;SDS011;70012;0.000;0.000;2023-07-20T10:12:16;4.07;;;2.42;;
80647;SDS011;70012;0.000;0.000;2023-07-20T10:14:44;3.70;;;2.72;;
80647;SDS011;70012;0.000;0.000;2023-07-20T10:17:19;4.65;;;2.40;;
80647;SDS011;70012;0.000;0.000;2023-07-20T10:19:47;4.88;;;2.95;;
80647;SDS011;70012;0.000;0.000;2023-07-20T10:22:23;6.78;;;2.42;;
80647;SDS011;70012;0.000;0.000;2023-07-20T10:27:20;2.88;;;2.03;;
80647;SDS011;70012;0.000;0.000;2023-07-20T10:29:47;5.32;;;2.35;;
80647;SDS011;70012;0.000;0.000;2023-07-20T10:32:15;3.80;;;2.22;;
80647;SDS011;70012;0.000;0.000;2023-07-20T10:34:41;4.55;;;2.55;;
80647;SDS011;70012;0.000;0.000;2023-07-20T10:37:08;3.70;;;2.28;;
80647;SDS011;70012;0.000;0.000;2023-07-20T10:39:35;3.05;;;1.90;;
80647;SDS011;70012;0.000;0.000;2023-07-20T10:44:31;2.58;;;1.83;;
80647;SDS011;70012;0.000;0.000;2023-07-20T10:47:01;5.05;;;2.90;;
80647;SDS011;70012;0.000;0.000;2023-07-20T10:49:30;2.10;;;1.75;;
80647;SDS011;70012;0.000;0.000;2023-07-20T10:52:00;3.35;;;1.88;;
80647;SDS011;70012;0.000;0.000;2023-07-20T10:59:49;2.58;;;1.80;;
80647;SDS011;70012;0.000;0.000;2023-07-20T11:02:17;3.97;;;2.10;;
80647;SDS011;70012;0.000;0.000;2023-07-20T11:04:46;3.80;;;1.98;;
80647;SDS011;70012;0.000;0.000;2023-07-20T11:07:15;5.50;;;1.92;;
80647;SDS011;70012;0.000;0.000;2023-07-20T11:10:13;3.22;;;1.75;;
80647;SDS011;70012;0.000;0.000;2023-07-20T11:18:28;4.63;;;1.80;;
80647;SDS011;70012;0.000;0.000;2023-07-20T11:20:54;3.20;;;2.00;;
80647;SDS011;70012;0.000;0.000;2023-07-20T11:23:22;4.03;;;2.20;;
80647;SDS011;70012;0.000;0.000;2023-07-20T11:25:49;4.82;;;2.10;;
80647;SDS011;70012;0.000;0.000;2023-07-20T11:28:16;3.80;;;2.25;;
80647;SDS011;70012;0.000;0.000;2023-07-20T11:30:43;7.93;;;2.20;;
80647;SDS011;70012;0.000;0.000;2023-07-20T11:33:10;4.40;;;2.08;;
80647;SDS011;70012;0.000;0.000;2023-07-20T11:35:43;3.78;;;2.05;;
80647;SDS011;70012;0.000;0.000;2023-07-20T11:38:12;5.18;;;2.03;;
80647;SDS011;70012;0.000;0.000;2023-07-20T11:40:46;4.32;;;2.50;;
80647;SDS011;70012;0.000;0.000;2023-07-20T11:43:13;2.80;;;1.80;;
80647;SDS011;70012;0.000;0.000;2023-07-20T11:45:43;4.32;;;2.10;;
80647;SDS011;70012;0.000;0.000;2023-07-20T11:48:17;5.45;;;2.42;;
80647;SDS011;70012;0.000;0.000;2023-07-20T11:50:44;3.70;;;2.33;;
80647;SDS011;70012;0.000;0.000;2023-07-20T11:53:11;4.78;;;1.80;;
80647;SDS011;70012;0.000;0.000;2023-07-20T11:55:38;3.80;;;2.00;;
80647;SDS011;70012;0.000;0.000;2023-07-20T11:58:07;3.17;;;1.95;;
80647;SDS011;70012;0.000;0.000;2023-07-20T12:00:37;2.83;;;1.75;;
80647;SDS011;70012;0.000;0.000;2023-07-20T12:03:06;5.32;;;1.88;;
80647;SDS011;70012;0.000;0.000;2023-07-20T12:05:34;3.13;;;1.88;;
80647;SDS011;70012;0.000;0.000;2023-07-20T12:08:20;7.40;;;2.20;;
80647;SDS011;70012;0.000;0.000;2023-07-20T12:10:48;3.35;;;1.70;;
80647;SDS011;70012;0.000;0.000;2023-07-20T12:13:15;1.92;;;1.70;;
80647;SDS011;70012;0.000;0.000;2023-07-20T12:15:42;2.17;;;1.95;;
80647;SDS011;70012;0.000;0.000;2023-07-20T12:18:09;2.63;;;1.70;;
80647;SDS011;70012;0.000;0.000;2023-07-20T12:20:36;3.47;;;1.70;;
80647;SDS011;70012;0.000;0.000;2023-07-20T12:23:05;4.60;;;2.00;;
80647;SDS011;70012;0.000;0.000;2023-07-20T12:25:39;5.15;;;2.08;;
80647;SDS011;70012;0.000;0.000;2023-07-20T12:28:08;2.60;;;1.92;;
80647;SDS011;70012;0.000;0.000;2023-07-20T12:30:36;2.83;;;1.67;;
80647;SDS011;70012;0.000;0.000;2023-07-20T12:33:03;5.93;;;2.00;;
80647;SDS011;70012;0.000;0.000;2023-07-20T12:35:31;4.25;;;1.95;;
80647;SDS011;70012;0.000;0.000;2023-07-20T12:37:58;4.18;;;2.30;;
80647;SDS011;70012;0.000;0.000;2023-07-20T12:40:25;2.92;;;1.90;;
80647;SDS011;70012;0.000;0.000;2023-07-20T12:42:51;5.40;;;2.10;;
80647;SDS011;70012;0.000;0.000;2023-07-20T12:45:18;3.45;;;1.80;;
80647;SDS011;70012;0.000;0.000;2023-07-20T12:47:45;3.67;;;1.98;;
80647;SDS011;70012;0.000;0.000;2023-07-20T12:50:12;7.05;;;1.80;;
80647;SDS011;70012;0.000;0.000;2023-07-20T12:52:39;5.28;;;1.85;;
80647;SDS011;70012;0.000;0.000;2023-07-20T12:55:07;2.65;;;1.88;;
80647;SDS011;70012;0.000;0.000;2023-07-20T12:57:35;2.65;;;1.98;;
80647;SDS011;70012;0.000;0.000;2023-07-20T13:00:05;2.92;;;1.80;;
80647;SDS011;70012;0.000;0.000;2023-07-20T13:02:37;6.13;;;1.88;;
80647;SDS011;70012;0.000;0.000;2023-07-20T13:05:04;5.95;;;1.88;;
80647;SDS011;70012;0.000;0.000;2023-07-20T13:07:35;5.13;;;1.80;;
80647;SDS011;70012;0.000;0.000;2023-07-20T13:10:06;4.55;;;1.98;;
80647;SDS011;70012;0.000;0.000;2023-07-20T13:12:34;3.58;;;1.70;;
80647;SDS011;70012;0.000;0.000;2023-07-20T13:15:02;2.78;;;1.77;;
80647;SDS011;70012;0.000;0.000;2023-07-20T13:17:32;4.60;;;2.08;;
80647;SDS011;70012;0.000;0.000;2023-07-20T13:20:00;2.90;;;1.65;;
80647;SDS011;70012;0.000;0.000;2023-07-20T13:22:26;4.18;;;1.90;;
80647;SDS011;70012;0.000;0.000;2023-07-20T13:24:53;5.72;;;2.10;;
80647;SDS011;70012;0.000;0.000;2023-07-20T13:27:20;4.47;;;1.73;;
80647;SDS011;70012;0.000;0.000;2023-07-20T13:29:46;2.83;;;1.80;;
80647;SDS011;70012;0.000;0.000;2023-07-20T13:32:14;2.45;;;1.80;;
80647;SDS011;70012;0.000;0.000;2023-07-20T13:34:42;3.55;;;1.88;;
80647;SDS011;70012;0.000;0.000;2023-07-20T13:37:14;8.23;;;1.70;;
80647;SDS011;70012;0.000;0.000;2023-07-20T13:39:42;3.33;;;1.80;;
80647;SDS011;70012;0.000;0.000;2023-07-20T13:42:10;4.70;;;1.80;;
80647;SDS011;70012;0.000;0.000;2023-07-20T13:44:39;10.55;;;2.08;;
80647;SDS011;70012;0.000;0.000;2023-07-20T13:47:05;6.30;;;1.83;;
80647;SDS011;70012;0.000;0.000;2023-07-20T13:49:35;4.38;;;1.73;;
80647;SDS011;70012;0.000;0.000;2023-07-20T13:52:13;5.25;;;2.22;;
80647;SDS011;70012;0.000;0.000;2023-07-20T13:54:42;4.35;;;1.80;;
80647;SDS011;70012;0.000;0.000;2023-07-20T13:57:11;4.75;;;2.10;;
80647;SDS011;70012;0.000;0.000;2023-07-20T13:59:40;5.22;;;1.95;;
80647;SDS011;70012;0.000;0.000;2023-07-20T14:02:08;2.92;;;1.90;;
80647;SDS011;70012;0.000;0.000;2023-07-20T14:04:37;2.75;;;1.70;;
80647;SDS011;70012;0.000;0.000;2023-07-20T14:07:04;3.67;;;2.00;;
80647;SDS011;70012;0.000;0.000;2023-07-20T14:09:31;4.78;;;1.80;;
80647;SDS011;70012;0.000;0.000;2023-07-20T14:11:58;2.90;;;1.92;;
80647;SDS011;70012;0.000;0.000;2023-07-20T14:14:28;2.88;;;1.60;;
80647;SDS011;70012;0.000;0.000;2023-07-20T14:16:54;2.72;;;1.80;;
80647;SDS011;70012;0.000;0.000;2023-07-20T14:19:22;4.05;;;1.88;;
80647;SDS011;70012;0.000;0.000;2023-07-20T14:21:49;3.20;;;1.92;;
80647;SDS011;70012;0.000;0.000;2023-07-20T14:24:16;5.10;;;2.00;;
80647;SDS011;70012;0.000;0.000;2023-07-20T14:26:44;6.53;;;2.00;;
80647;SDS011;70012;0.000;0.000;2023-07-20T14:29:11;3.70;;;2.00;;
80647;SDS011;70012;0.000;0.000;2023-07-20T14:31:38;4.35;;;1.58;;
80647;SDS011;70012;0.000;0.000;2023-07-20T14:34:04;3.58;;;1.95;;
80647;SDS011;70012;0.000;0.000;2023-07-20T14:36:31;2.38;;;1.70;;
80647;SDS011;70012;0.000;0.000;2023-07-20T14:39:00;2.83;;;1.83;;
80647;SDS011;70012;0.000;0.000;2023-07-20T14:41:26;2.67;;;1.90;;
80647;SDS011;70012;0.000;0.000;2023-07-20T14:43:53;3.30;;;2.03;;
80647;SDS011;70012;0.000;0.000;2023-07-20T14:46:19;4.65;;;1.70;;
80647;SDS011;70012;0.000;0.000;2023-07-20T14:48:47;2.47;;;1.88;;
80647;SDS011;70012;0.000;0.000;2023-07-20T14:51:14;2.50;;;1.88;;
80647;SDS011;70012;0.000;0.000;2023-07-20T14:53:41;2.80;;;2.05;;
80647;SDS011;70012;0.000;0.000;2023-07-20T14:56:08;3.13;;;2.10;;
80647;SDS011;70012;0.000;0.000;2023-07-20T14:58:35;3.15;;;1.80;;
80647;SDS011;70012;0.000;0.000;2023-07-20T15:01:02;3.38;;;1.88;;
80647;SDS011;70012;0.000;0.000;2023-07-20T15:03:30;5.20;;;1.70;;
80647;SDS011;70012;0.000;0.000;2023-07-20T15:05:57;2.08;;;1.58;;
80647;SDS011;70012;0.000;0.000;2023-07-20T15:08:24;2.83;;;1.73;;
80647;SDS011;70012;0.000;0.000;2023-07-20T15:10:51;3.78;;;2.00;;
80647;SDS011;70012;0.000;0.000;2023-07-20T15:13:17;6.35;;;1.77;;
80647;SDS011;70012;0.000;0.000;2023-07-20T15:15:44;2.50;;;1.52;;
80647;SDS011;70012;0.000;0.000;2023-07-20T15:18:11;3.58;;;1.77;;
80647;SDS011;70012;0.000;0.000;2023-07-20T15:20:37;1.77;;;1.48;;
80647;SDS011;70012;0.000;0.000;2023-07-20T15:23:04;2.65;;;1.73;;
80647;SDS011;70012;0.000;0.000;2023-07-20T15:25:31;3.10;;;1.60;;
80647;SDS011;70012;0.000;0.000;2023-07-20T15:27:58;2.83;;;1.80;;
80647;SDS011;70012;0.000;0.000;2023-07-20T15:30:24;2.47;;;1.63;;
80647;SDS011;70012;0.000;0.000;2023-07-20T15:32:54;3.47;;;1.80;;
80647;SDS011;70012;0.000;0.000;2023-07-20T15:35:25;3.47;;;1.73;;
80647;SDS011;70012;0.000;0.000;2023-07-20T15:37:52;3.63;;;1.77;;
80647;SDS011;70012;0.000;0.000;2023-07-20T15:40:19;2.30;;;1.70;;
80647;SDS011;70012;0.000;0.000;2023-07-20T15:42:45;2.20;;;1.60;;
80647;SDS011;70012;0.000;0.000;2023-07-20T15:45:19;2.63;;;1.60;;
80647;SDS011;70012;0.000;0.000;2023-07-20T15:47:47;4.82;;;1.83;;